Wetterdaten: Woche 10.05.10 - 16.05.10 (KW19)
Datum Zeit Temp. Innen Temp. Aussen UV X Diff Temp. Feuchte Inne Feuchte Auss Sonnenschein Luftdruck Regen ab 0,1 Wind Sonnenschein Windben
10.05.2010 00:00 16,9 C 9,7 C 0,0 UV-I 0,0 C 52 % 81 % 0 % 1008,5 hPa 0,0 l/m 7,4 km/h (2 Bft) 0,00 h 7,6 km/h (2 Bft)
10.05.2010 01:00 16,8 C 9,3 C 0,0 UV-I 0,0 C 53 % 83 % 0 % 1008,6 hPa 0,0 l/m 6,9 km/h (2 Bft) 0,00 h 7,6 km/h (2 Bft)
10.05.2010 02:00 16,7 C 8,9 C 0,0 UV-I 0,0 C 53 % 84 % 0 % 1008,3 hPa 0,0 l/m 7,0 km/h (2 Bft) 0,00 h 7,1 km/h (2 Bft)
10.05.2010 03:00 16,6 C 8,6 C 0,0 UV-I 0,0 C 53 % 83 % 0 % 1008,5 hPa 0,0 l/m 8,0 km/h (2 Bft) 0,00 h 9,5 km/h (2 Bft)
10.05.2010 04:00 16,6 C 8,2 C 0,0 UV-I 0,0 C 53 % 82 % 0 % 1008,4 hPa 0,0 l/m 8,3 km/h (2 Bft) 0,00 h 8,9 km/h (2 Bft)
10.05.2010 05:00 16,5 C 7,7 C 0,0 UV-I 0,0 C 52 % 81 % 0 % 1008,3 hPa 0,0 l/m 11,0 km/h (2 Bft) 0,00 h 10,7 km/h (2 Bft)
10.05.2010 06:00 16,3 C 7,1 C 0,0 UV-I 0,0 C 52 % 82 % 0 % 1008,8 hPa 0,0 l/m 11,3 km/h (2 Bft) 0,00 h 12,3 km/h (3 Bft)
10.05.2010 07:00 16,3 C 7,1 C 0,2 UV-I 0,0 C 52 % 80 % 0 % 1009,2 hPa 0,0 l/m 9,8 km/h (2 Bft) 0,00 h 9,9 km/h (2 Bft)
10.05.2010 08:00 16,3 C 7,6 C 1,1 UV-I 0,2 C 52 % 77 % 5 % 1009,4 hPa 0,0 l/m 11,9 km/h (2 Bft) 0,00 h 12,1 km/h (2 Bft)
10.05.2010 09:00 16,4 C 8,1 C 3,7 UV-I 1,1 C 51 % 74 % 30 % 1009,6 hPa 0,0 l/m 12,6 km/h (3 Bft) 0,07 h 12,3 km/h (3 Bft)
10.05.2010 10:00 16,5 C 10,0 C 9,8 UV-I 5,4 C 51 % 69 % 100 % 1009,8 hPa 0,0 l/m 7,9 km/h (2 Bft) 1,00 h 8,8 km/h (2 Bft)
10.05.2010 11:00 16,7 C 11,0 C 8,7 UV-I 4,3 C 50 % 65 % 97 % 1010,1 hPa 0,0 l/m 10,7 km/h (2 Bft) 0,90 h 12,0 km/h (2 Bft)
10.05.2010 12:00 17,3 C 11,9 C 8,1 UV-I 4,8 C 50 % 61 % 100 % 1010,3 hPa 0,0 l/m 11,1 km/h (2 Bft) 0,97 h 9,8 km/h (2 Bft)
10.05.2010 13:00 18,0 C 12,2 C 7,6 UV-I 4,3 C 48 % 59 % 100 % 1010,6 hPa 0,0 l/m 10,5 km/h (2 Bft) 0,97 h 9,9 km/h (2 Bft)
10.05.2010 14:00 18,5 C 12,2 C 6,5 UV-I 3,7 C 46 % 58 % 96 % 1010,9 hPa 0,0 l/m 10,4 km/h (2 Bft) 0,93 h 9,8 km/h (2 Bft)
10.05.2010 15:00 18,7 C 12,0 C 3,8 UV-I 1,9 C 45 % 57 % 55 % 1010,7 hPa 0,0 l/m 9,7 km/h (2 Bft) 0,00 h 9,7 km/h (2 Bft)
10.05.2010 16:00 18,5 C 12,0 C 3,3 UV-I 1,8 C 45 % 56 % 52 % 1010,4 hPa 0,0 l/m 7,9 km/h (2 Bft) 0,00 h 8,5 km/h (2 Bft)
10.05.2010 17:00 18,4 C 12,0 C 3,1 UV-I 1,6 C 46 % 56 % 47 % 1010,4 hPa 0,0 l/m 10,0 km/h (2 Bft) 0,00 h 9,6 km/h (2 Bft)
10.05.2010 18:00 18,2 C 11,8 C 1,7 UV-I 0,8 C 46 % 56 % 23 % 1010,2 hPa 0,0 l/m 7,9 km/h (2 Bft) 0,00 h 9,5 km/h (2 Bft)
10.05.2010 19:00 17,8 C 11,4 C 0,4 UV-I 0,1 C 46 % 57 % 4 % 1010,1 hPa 0,0 l/m 7,0 km/h (2 Bft) 0,00 h 8,1 km/h (2 Bft)
10.05.2010 20:00 17,2 C 10,9 C 0,0 UV-I 0,0 C 47 % 60 % 0 % 1010,0 hPa 0,0 l/m 7,1 km/h (2 Bft) 0,00 h 7,3 km/h (2 Bft)
10.05.2010 21:00 16,9 C 10,3 C 0,0 UV-I 0,0 C 48 % 62 % 0 % 1010,2 hPa 0,0 l/m 9,6 km/h (2 Bft) 0,00 h 10,2 km/h (2 Bft)
10.05.2010 22:00 16,7 C 9,8 C 0,0 UV-I 0,0 C 48 % 64 % 0 % 1010,2 hPa 0,0 l/m 8,7 km/h (2 Bft) 0,00 h 8,2 km/h (2 Bft)
10.05.2010 23:00 16,6 C 9,4 C 0,0 UV-I 0,0 C 48 % 66 % 0 % 1010,3 hPa 0,0 l/m 5,6 km/h (1 Bft) 0,00 h 6,9 km/h (2 Bft)
11.05.2010 00:00 16,5 C 9,0 C 0,0 UV-I 0,0 C 49 % 68 % 0 % 1010,6 hPa 0,0 l/m 5,7 km/h (1 Bft) 0,00 h 6,5 km/h (2 Bft)
11.05.2010 01:00 16,5 C 8,7 C 0,0 UV-I 0,0 C 49 % 70 % 0 % 1010,7 hPa 0,0 l/m 4,0 km/h (1 Bft) 0,00 h 4,2 km/h (1 Bft)
11.05.2010 02:00 16,4 C 8,3 C 0,0 UV-I 0,0 C 49 % 72 % 0 % 1010,6 hPa 0,0 l/m 5,1 km/h (1 Bft) 0,00 h 5,2 km/h (1 Bft)
11.05.2010 03:00 16,3 C 7,5 C 0,0 UV-I 0,0 C 49 % 74 % 0 % 1010,2 hPa 0,0 l/m 5,9 km/h (2 Bft) 0,00 h 5,7 km/h (1 Bft)
11.05.2010 04:00 16,1 C 6,6 C 0,0 UV-I 0,0 C 49 % 77 % 0 % 1009,9 hPa 0,0 l/m 6,5 km/h (2 Bft) 0,00 h 5,7 km/h (1 Bft)
11.05.2010 05:00 15,8 C 5,8 C 0,0 UV-I 0,0 C 50 % 80 % 0 % 1009,5 hPa 0,0 l/m 2,8 km/h (1 Bft) 0,00 h 2,9 km/h (1 Bft)
11.05.2010 06:00 15,6 C 5,3 C 0,0 UV-I 0,0 C 50 % 83 % 0 % 1009,3 hPa 0,0 l/m 0,9 km/h (0 Bft) 0,00 h 1,3 km/h (1 Bft)
11.05.2010 07:00 15,6 C 6,6 C 0,2 UV-I 0,0 C 50 % 81 % 0 % 1009,4 hPa 0,0 l/m 7,5 km/h (2 Bft) 0,00 h 7,5 km/h (2 Bft)
11.05.2010 08:00 15,6 C 7,2 C 0,3 UV-I 0,0 C 50 % 79 % 0 % 1009,3 hPa 0,0 l/m 8,0 km/h (2 Bft) 0,00 h 8,1 km/h (2 Bft)
11.05.2010 09:00 15,7 C 7,5 C 0,4 UV-I 0,1 C 50 % 79 % 2 % 1009,2 hPa 0,0 l/m 8,0 km/h (2 Bft) 0,00 h 9,0 km/h (2 Bft)
11.05.2010 10:00 15,7 C 8,2 C 1,0 UV-I 0,2 C 50 % 77 % 6 % 1009,2 hPa 0,0 l/m 8,4 km/h (2 Bft) 0,00 h 9,9 km/h (2 Bft)
11.05.2010 11:00 15,8 C 8,8 C 1,3 UV-I 0,2 C 50 % 74 % 5 % 1008,7 hPa 0,0 l/m 8,4 km/h (2 Bft) 0,00 h 10,5 km/h (2 Bft)
11.05.2010 12:00 15,8 C 8,7 C 0,9 UV-I 0,0 C 50 % 76 % 0 % 1008,2 hPa 0,0 l/m 10,0 km/h (2 Bft) 0,00 h 8,5 km/h (2 Bft)
11.05.2010 13:00 15,8 C 9,0 C 1,0 UV-I 0,1 C 50 % 75 % 4 % 1007,8 hPa 0,0 l/m 10,8 km/h (2 Bft) 0,00 h 11,1 km/h (2 Bft)
11.05.2010 14:00 15,8 C 9,0 C 0,4 UV-I 0,0 C 50 % 76 % 1 % 1007,7 hPa 0,0 l/m 11,2 km/h (2 Bft) 0,00 h 10,9 km/h (2 Bft)
11.05.2010 15:00 15,6 C 8,8 C 0,4 UV-I 0,0 C 51 % 77 % 0 % 1007,3 hPa 0,0 l/m 10,6 km/h (2 Bft) 0,00 h 12,9 km/h (3 Bft)
11.05.2010 16:00 15,6 C 8,8 C 0,6 UV-I 0,0 C 51 % 75 % 0 % 1006,6 hPa 0,0 l/m 12,3 km/h (3 Bft) 0,00 h 12,3 km/h (3 Bft)
11.05.2010 17:00 15,6 C 8,8 C 0,6 UV-I 0,0 C 51 % 73 % 0 % 1006,1 hPa 0,0 l/m 14,0 km/h (3 Bft) 0,00 h 14,4 km/h (3 Bft)
11.05.2010 18:00 15,6 C 8,6 C 0,4 UV-I 0,0 C 51 % 77 % 0 % 1005,7 hPa 0,0 l/m 12,5 km/h (3 Bft) 0,00 h 12,3 km/h (3 Bft)
11.05.2010 19:00 15,6 C 8,1 C 0,0 UV-I 0,0 C 51 % 79 % 0 % 1005,6 hPa 0,1 l/m 13,1 km/h (3 Bft) 0,00 h 12,2 km/h (2 Bft)
11.05.2010 20:00 15,4 C 7,2 C 0,0 UV-I 0,0 C 51 % 84 % 0 % 1005,6 hPa 1,2 l/m 11,4 km/h (2 Bft) 0,00 h 12,1 km/h (2 Bft)
11.05.2010 21:00 15,3 C 6,4 C 0,0 UV-I 0,0 C 52 % 89 % 0 % 1005,6 hPa 1,6 l/m 10,4 km/h (2 Bft) 0,00 h 10,3 km/h (2 Bft)
11.05.2010 22:00 15,2 C 6,1 C 0,0 UV-I 0,0 C 53 % 91 % 0 % 1005,1 hPa 1,2 l/m 11,2 km/h (2 Bft) 0,00 h 13,7 km/h (3 Bft)
11.05.2010 23:00 15,2 C 5,9 C 0,0 UV-I 0,0 C 53 % 92 % 0 % 1004,9 hPa 1,6 l/m 11,7 km/h (2 Bft) 0,00 h 13,2 km/h (3 Bft)
12.05.2010 00:00 15,0 C 5,9 C 0,0 UV-I 0,0 C 53 % 93 % 0 % 1005,0 hPa 3,0 l/m 12,7 km/h (3 Bft) 0,00 h 12,8 km/h (3 Bft)
12.05.2010 01:00 15,0 C 5,7 C 0,0 UV-I 0,0 C 54 % 93 % 0 % 1004,5 hPa 0,8 l/m 13,2 km/h (3 Bft) 0,00 h 12,7 km/h (3 Bft)
12.05.2010 02:00 14,9 C 5,5 C 0,0 UV-I 0,0 C 54 % 93 % 0 % 1004,4 hPa 1,0 l/m 10,5 km/h (2 Bft) 0,00 h 10,1 km/h (2 Bft)
12.05.2010 03:00 14,8 C 5,5 C 0,0 UV-I 0,0 C 54 % 94 % 0 % 1004,6 hPa 0,4 l/m 5,2 km/h (1 Bft) 0,00 h 6,8 km/h (2 Bft)
12.05.2010 04:00 14,8 C 5,4 C 0,0 UV-I 0,0 C 54 % 94 % 0 % 1005,0 hPa 0,1 l/m 2,6 km/h (1 Bft) 0,00 h 2,5 km/h (1 Bft)
12.05.2010 05:00 14,8 C 5,5 C 0,0 UV-I 0,0 C 54 % 94 % 0 % 1005,3 hPa 0,1 l/m 2,2 km/h (1 Bft) 0,00 h 3,7 km/h (1 Bft)
12.05.2010 06:00 14,8 C 5,6 C 0,0 UV-I 0,0 C 54 % 94 % 0 % 1005,7 hPa 0,1 l/m 4,2 km/h (1 Bft) 0,00 h 6,0 km/h (2 Bft)
12.05.2010 07:00 14,8 C 5,5 C 0,0 UV-I 0,0 C 55 % 95 % 0 % 1006,2 hPa 0,0 l/m 4,6 km/h (1 Bft) 0,00 h 5,4 km/h (1 Bft)
12.05.2010 08:00 14,8 C 5,7 C 0,1 UV-I 0,0 C 55 % 95 % 0 % 1006,7 hPa 0,1 l/m 3,7 km/h (1 Bft) 0,00 h 4,9 km/h (1 Bft)
12.05.2010 09:00 14,8 C 6,0 C 0,3 UV-I 0,0 C 55 % 95 % 0 % 1007,5 hPa 0,0 l/m 3,9 km/h (1 Bft) 0,00 h 4,7 km/h (1 Bft)
12.05.2010 10:00 14,8 C 6,1 C 0,5 UV-I 0,3 C 55 % 94 % 8 % 1008,2 hPa 0,0 l/m 4,3 km/h (1 Bft) 0,00 h 6,6 km/h (2 Bft)
12.05.2010 11:00 14,8 C 6,3 C 1,1 UV-I 0,4 C 55 % 94 % 10 % 1008,6 hPa 0,0 l/m 5,1 km/h (1 Bft) 0,00 h 5,7 km/h (1 Bft)
12.05.2010 12:00 14,8 C 6,6 C 1,3 UV-I 0,7 C 55 % 94 % 19 % 1009,0 hPa 0,0 l/m 4,9 km/h (1 Bft) 0,00 h 6,4 km/h (2 Bft)
12.05.2010 13:00 15,0 C 7,1 C 1,8 UV-I 1,1 C 55 % 92 % 31 % 1009,7 hPa 0,0 l/m 5,3 km/h (1 Bft) 0,00 h 5,7 km/h (1 Bft)
12.05.2010 14:00 15,0 C 7,6 C 1,8 UV-I 0,9 C 54 % 91 % 26 % 1010,1 hPa 0,0 l/m 4,2 km/h (1 Bft) 0,00 h 5,1 km/h (1 Bft)
12.05.2010 15:00 15,1 C 7,8 C 1,0 UV-I 0,7 C 54 % 90 % 20 % 1010,4 hPa 0,0 l/m 4,5 km/h (1 Bft) 0,00 h 6,0 km/h (2 Bft)
12.05.2010 16:00 15,0 C 7,8 C 0,6 UV-I 0,3 C 54 % 89 % 7 % 1010,6 hPa 0,0 l/m 2,5 km/h (1 Bft) 0,00 h 3,2 km/h (1 Bft)
12.05.2010 17:00 15,0 C 7,9 C 0,7 UV-I 0,3 C 55 % 88 % 9 % 1010,7 hPa 0,0 l/m 2,1 km/h (1 Bft) 0,00 h 3,9 km/h (1 Bft)
12.05.2010 18:00 15,0 C 8,1 C 0,4 UV-I 0,3 C 55 % 87 % 8 % 1010,6 hPa 0,0 l/m 1,7 km/h (1 Bft) 0,00 h 3,0 km/h (1 Bft)
12.05.2010 19:00 14,9 C 8,0 C 0,1 UV-I 0,1 C 55 % 86 % 2 % 1010,9 hPa 0,0 l/m 1,3 km/h (1 Bft) 0,00 h 1,5 km/h (1 Bft)
12.05.2010 20:00 14,8 C 7,8 C 0,0 UV-I 0,0 C 55 % 87 % 0 % 1011,1 hPa 0,0 l/m 0,7 km/h (0 Bft) 0,00 h 0,9 km/h (0 Bft)
12.05.2010 21:00 14,8 C 7,4 C 0,0 UV-I 0,0 C 55 % 89 % 0 % 1011,4 hPa 0,0 l/m 0,2 km/h (0 Bft) 0,00 h 0,1 km/h (0 Bft)
12.05.2010 22:00 14,8 C 7,2 C 0,0 UV-I 0,0 C 56 % 90 % 0 % 1011,7 hPa 0,0 l/m 0,2 km/h (0 Bft) 0,00 h 0,0 km/h (0 Bft)
12.05.2010 23:00 14,6 C 7,0 C 0,0 UV-I 0,0 C 56 % 91 % 0 % 1012,0 hPa 0,0 l/m 0,7 km/h (0 Bft) 0,00 h 0,9 km/h (0 Bft)
13.05.2010 00:00 14,7 C 6,9 C 0,0 UV-I 0,0 C 56 % 92 % 0 % 1012,0 hPa 0,1 l/m 1,0 km/h (0 Bft) 0,00 h 1,5 km/h (1 Bft)
13.05.2010 01:00 14,6 C 6,8 C 0,0 UV-I 0,0 C 57 % 93 % 0 % 1011,9 hPa 0,0 l/m 1,1 km/h (0 Bft) 0,00 h 1,7 km/h (1 Bft)
13.05.2010 02:00 14,6 C 6,6 C 0,0 UV-I 0,0 C 56 % 92 % 0 % 1011,8 hPa 0,0 l/m 1,8 km/h (1 Bft) 0,00 h 2,4 km/h (1 Bft)
13.05.2010 03:00 14,6 C 6,5 C 0,0 UV-I 0,0 C 56 % 92 % 0 % 1011,8 hPa 0,0 l/m 1,3 km/h (1 Bft) 0,00 h 1,6 km/h (1 Bft)
13.05.2010 04:00 14,4 C 6,3 C 0,0 UV-I 0,0 C 56 % 92 % 0 % 1012,0 hPa 0,0 l/m 1,1 km/h (1 Bft) 0,00 h 1,5 km/h (1 Bft)
13.05.2010 05:00 14,4 C 6,2 C 0,0 UV-I 0,0 C 56 % 92 % 0 % 1011,7 hPa 0,0 l/m 1,6 km/h (1 Bft) 0,00 h 2,0 km/h (1 Bft)
13.05.2010 06:00 14,5 C 6,1 C 0,0 UV-I 0,0 C 56 % 92 % 0 % 1011,8 hPa 0,0 l/m 0,7 km/h (0 Bft) 0,00 h 1,4 km/h (1 Bft)
13.05.2010 07:00 14,5 C 6,5 C 0,7 UV-I 0,2 C 56 % 92 % 6 % 1012,2 hPa 0,0 l/m 3,8 km/h (1 Bft) 0,00 h 4,7 km/h (1 Bft)
13.05.2010 08:00 14,6 C 7,0 C 0,6 UV-I 0,4 C 56 % 91 % 13 % 1012,5 hPa 0,0 l/m 3,3 km/h (1 Bft) 0,00 h 3,9 km/h (1 Bft)
13.05.2010 09:00 14,7 C 7,5 C 1,9 UV-I 1,2 C 56 % 89 % 34 % 1012,6 hPa 0,0 l/m 6,0 km/h (2 Bft) 0,00 h 7,1 km/h (2 Bft)
13.05.2010 10:00 14,9 C 8,6 C 3,4 UV-I 2,1 C 56 % 84 % 61 % 1012,7 hPa 0,0 l/m 7,2 km/h (2 Bft) 0,20 h 8,7 km/h (2 Bft)
13.05.2010 11:00 15,2 C 8,8 C 1,8 UV-I 1,2 C 55 % 81 % 34 % 1012,8 hPa 0,0 l/m 6,1 km/h (2 Bft) 0,00 h 6,6 km/h (2 Bft)
13.05.2010 12:00 15,1 C 8,6 C 1,2 UV-I 0,5 C 54 % 81 % 13 % 1013,0 hPa 0,0 l/m 5,0 km/h (1 Bft) 0,00 h 5,0 km/h (1 Bft)
13.05.2010 13:00 15,1 C 9,0 C 2,1 UV-I 1,3 C 54 % 79 % 36 % 1013,2 hPa 0,0 l/m 1,9 km/h (1 Bft) 0,00 h 2,6 km/h (1 Bft)
13.05.2010 14:00 15,1 C 9,3 C 0,9 UV-I 0,7 C 54 % 78 % 21 % 1013,1 hPa 0,0 l/m 0,6 km/h (0 Bft) 0,00 h 0,9 km/h (0 Bft)
13.05.2010 15:00 15,1 C 9,5 C 1,6 UV-I 0,9 C 54 % 75 % 26 % 1013,0 hPa 0,0 l/m 1,7 km/h (1 Bft) 0,00 h 2,1 km/h (1 Bft)
13.05.2010 16:00 15,1 C 9,6 C 0,9 UV-I 0,5 C 54 % 76 % 13 % 1012,9 hPa 0,0 l/m 2,8 km/h (1 Bft) 0,00 h 3,1 km/h (1 Bft)
13.05.2010 17:00 15,1 C 9,5 C 0,3 UV-I 0,0 C 54 % 77 % 1 % 1012,9 hPa 0,0 l/m 1,6 km/h (1 Bft) 0,00 h 1,8 km/h (1 Bft)
13.05.2010 18:00 15,1 C 9,2 C 0,2 UV-I 0,0 C 54 % 81 % 0 % 1012,6 hPa 0,0 l/m 0,8 km/h (0 Bft) 0,00 h 1,1 km/h (0 Bft)
13.05.2010 19:00 15,0 C 8,7 C 0,1 UV-I 0,0 C 55 % 84 % 0 % 1012,7 hPa 0,0 l/m 1,8 km/h (1 Bft) 0,00 h 3,2 km/h (1 Bft)
13.05.2010 20:00 14,9 C 8,0 C 0,0 UV-I 0,0 C 55 % 89 % 0 % 1013,0 hPa 0,0 l/m 0,5 km/h (0 Bft) 0,00 h 0,6 km/h (0 Bft)
13.05.2010 21:00 14,8 C 7,7 C 0,0 UV-I 0,0 C 56 % 91 % 0 % 1012,9 hPa 0,0 l/m 0,0 km/h (0 Bft) 0,00 h 0,0 km/h (0 Bft)
13.05.2010 22:00 14,8 C 7,7 C 0,0 UV-I 0,0 C 57 % 92 % 0 % 1013,2 hPa 0,1 l/m 0,3 km/h (0 Bft) 0,00 h 0,4 km/h (0 Bft)
13.05.2010 23:00 14,8 C 7,6 C 0,0 UV-I 0,0 C 57 % 93 % 0 % 1012,9 hPa 0,0 l/m 0,1 km/h (0 Bft) 0,00 h 0,0 km/h (0 Bft)
14.05.2010 00:00 14,8 C 7,5 C 0,0 UV-I 0,0 C 57 % 93 % 0 % 1012,8 hPa 0,0 l/m 0,1 km/h (0 Bft) 0,00 h 0,2 km/h (0 Bft)
14.05.2010 01:00 14,7 C 7,2 C 0,0 UV-I 0,0 C 58 % 93 % 0 % 1013,1 hPa 0,0 l/m 0,0 km/h (0 Bft) 0,00 h 0,0 km/h (0 Bft)
14.05.2010 02:00 14,7 C 7,2 C 0,0 UV-I 0,0 C 58 % 93 % 0 % 1012,7 hPa 0,0 l/m 0,0 km/h (0 Bft) 0,00 h 0,0 km/h (0 Bft)
14.05.2010 03:00 14,7 C 7,1 C 0,0 UV-I 0,0 C 58 % 94 % 0 % 1012,1 hPa 0,0 l/m 0,0 km/h (0 Bft) 0,00 h 0,0 km/h (0 Bft)
14.05.2010 04:00 14,6 C 7,1 C 0,0 UV-I 0,0 C 58 % 94 % 0 % 1011,9 hPa 0,0 l/m 0,0 km/h (0 Bft) 0,00 h 0,0 km/h (0 Bft)
14.05.2010 05:00 14,6 C 6,9 C 0,0 UV-I 0,0 C 58 % 94 % 0 % 1012,1 hPa 0,0 l/m 0,0 km/h (0 Bft) 0,00 h 0,0 km/h (0 Bft)
14.05.2010 06:00 14,6 C 7,0 C 0,0 UV-I 0,0 C 58 % 94 % 0 % 1011,7 hPa 0,0 l/m 0,0 km/h (0 Bft) 0,00 h 0,0 km/h (0 Bft)
14.05.2010 07:00 14,6 C 7,3 C 0,1 UV-I 0,0 C 58 % 95 % 0 % 1011,6 hPa 0,0 l/m 0,2 km/h (0 Bft) 0,00 h 0,2 km/h (0 Bft)
14.05.2010 08:00 14,7 C 7,9 C 0,8 UV-I 0,5 C 58 % 94 % 15 % 1011,8 hPa 0,0 l/m 1,6 km/h (1 Bft) 0,00 h 2,9 km/h (1 Bft)
14.05.2010 09:00 14,9 C 9,0 C 1,5 UV-I 1,6 C 58 % 90 % 44 % 1011,9 hPa 0,0 l/m 2,6 km/h (1 Bft) 0,00 h 3,0 km/h (1 Bft)
14.05.2010 10:00 15,2 C 9,6 C 1,8 UV-I 1,6 C 57 % 86 % 45 % 1012,1 hPa 0,0 l/m 2,0 km/h (1 Bft) 0,00 h 2,7 km/h (1 Bft)
14.05.2010 11:00 15,4 C 10,2 C 2,5 UV-I 1,6 C 56 % 81 % 46 % 1012,2 hPa 0,0 l/m 4,6 km/h (1 Bft) 0,00 h 6,7 km/h (2 Bft)
14.05.2010 12:00 15,6 C 10,2 C 1,7 UV-I 0,7 C 55 % 79 % 20 % 1012,4 hPa 0,0 l/m 6,5 km/h (2 Bft) 0,00 h 7,0 km/h (2 Bft)
14.05.2010 13:00 15,5 C 9,7 C 0,2 UV-I 0,1 C 55 % 81 % 2 % 1012,7 hPa 0,0 l/m 0,8 km/h (0 Bft) 0,00 h 0,8 km/h (0 Bft)
14.05.2010 14:00 15,2 C 8,9 C 0,3 UV-I 0,0 C 56 % 84 % 0 % 1012,7 hPa 0,0 l/m 2,8 km/h (1 Bft) 0,00 h 2,7 km/h (1 Bft)
14.05.2010 15:00 15,2 C 9,1 C 1,4 UV-I 0,6 C 56 % 85 % 17 % 1012,6 hPa 0,0 l/m 1,0 km/h (0 Bft) 0,00 h 0,9 km/h (0 Bft)
14.05.2010 16:00 15,4 C 10,3 C 2,4 UV-I 1,5 C 56 % 80 % 42 % 1012,7 hPa 0,0 l/m 2,8 km/h (1 Bft) 0,00 h 2,8 km/h (1 Bft)
14.05.2010 17:00 15,9 C 11,3 C 2,8 UV-I 1,8 C 55 % 71 % 50 % 1012,6 hPa 0,0 l/m 5,1 km/h (1 Bft) 0,00 h 5,3 km/h (1 Bft)
14.05.2010 18:00 16,3 C 11,4 C 1,9 UV-I 1,1 C 53 % 70 % 31 % 1012,7 hPa 0,0 l/m 6,6 km/h (2 Bft) 0,00 h 8,6 km/h (2 Bft)
14.05.2010 19:00 16,2 C 10,9 C 0,5 UV-I 0,1 C 53 % 74 % 3 % 1012,6 hPa 0,0 l/m 8,4 km/h (2 Bft) 0,00 h 7,6 km/h (2 Bft)
14.05.2010 20:00 15,9 C 10,2 C 0,0 UV-I 0,0 C 53 % 76 % 0 % 1012,4 hPa 0,0 l/m 5,4 km/h (1 Bft) 0,00 h 5,9 km/h (2 Bft)
14.05.2010 21:00 15,4 C 9,7 C 0,0 UV-I 0,0 C 55 % 76 % 0 % 1012,6 hPa 0,0 l/m 1,1 km/h (1 Bft) 0,00 h 1,3 km/h (1 Bft)
14.05.2010 22:00 15,2 C 9,2 C 0,0 UV-I 0,0 C 55 % 78 % 0 % 1012,8 hPa 0,0 l/m 0,2 km/h (0 Bft) 0,00 h 0,5 km/h (0 Bft)
14.05.2010 23:00 15,2 C 8,8 C 0,0 UV-I 0,0 C 55 % 81 % 0 % 1012,9 hPa 0,0 l/m 0,2 km/h (0 Bft) 0,00 h 0,3 km/h (0 Bft)
15.05.2010 00:00 15,1 C 8,4 C 0,0 UV-I 0,0 C 56 % 83 % 0 % 1012,9 hPa 0,0 l/m 0,0 km/h (0 Bft) 0,00 h 0,0 km/h (0 Bft)
15.05.2010 01:00 15,1 C 8,3 C 0,0 UV-I 0,0 C 56 % 85 % 0 % 1012,7 hPa 0,0 l/m 0,5 km/h (0 Bft) 0,00 h 0,4 km/h (0 Bft)
15.05.2010 02:00 15,1 C 8,3 C 0,0 UV-I 0,0 C 56 % 85 % 0 % 1012,7 hPa 0,0 l/m 0,9 km/h (0 Bft) 0,00 h 0,8 km/h (0 Bft)
15.05.2010 03:00 15,0 C 8,2 C 0,0 UV-I 0,0 C 56 % 86 % 0 % 1012,5 hPa 0,0 l/m 1,7 km/h (1 Bft) 0,00 h 3,1 km/h (1 Bft)
15.05.2010 04:00 15,0 C 7,9 C 0,0 UV-I 0,0 C 56 % 86 % 0 % 1012,3 hPa 0,0 l/m 0,1 km/h (0 Bft) 0,00 h 0,3 km/h (0 Bft)
15.05.2010 05:00 15,0 C 7,6 C 0,0 UV-I 0,0 C 56 % 83 % 0 % 1012,3 hPa 0,0 l/m 0,0 km/h (0 Bft) 0,00 h 0,0 km/h (0 Bft)
15.05.2010 06:00 14,8 C 7,2 C 0,1 UV-I 0,0 C 56 % 84 % 0 % 1012,1 hPa 0,0 l/m 0,0 km/h (0 Bft) 0,00 h 0,0 km/h (0 Bft)
15.05.2010 07:00 14,8 C 6,8 C 1,2 UV-I 0,0 C 56 % 85 % 0 % 1012,1 hPa 0,0 l/m 2,1 km/h (1 Bft) 0,00 h 3,5 km/h (1 Bft)
15.05.2010 08:00 14,9 C 7,7 C 3,0 UV-I 2,4 C 56 % 84 % 60 % 1012,4 hPa 0,0 l/m 7,5 km/h (2 Bft) 0,43 h 8,9 km/h (2 Bft)
15.05.2010 09:00 15,0 C 9,7 C 6,2 UV-I 5,0 C 55 % 76 % 100 % 1012,7 hPa 0,0 l/m 8,7 km/h (2 Bft) 0,93 h 9,9 km/h (2 Bft)
15.05.2010 10:00 15,2 C 10,9 C 10,2 UV-I 5,0 C 55 % 63 % 100 % 1013,0 hPa 0,0 l/m 10,4 km/h (2 Bft) 0,93 h 11,5 km/h (2 Bft)
15.05.2010 11:00 15,5 C 11,7 C 9,3 UV-I 4,7 C 53 % 55 % 100 % 1013,0 hPa 0,0 l/m 10,7 km/h (2 Bft) 0,97 h 10,8 km/h (2 Bft)
15.05.2010 12:00 16,1 C 12,7 C 7,7 UV-I 4,2 C 52 % 52 % 100 % 1013,2 hPa 0,0 l/m 11,4 km/h (2 Bft) 0,93 h 12,2 km/h (2 Bft)
15.05.2010 13:00 16,7 C 13,2 C 7,3 UV-I 3,3 C 50 % 50 % 88 % 1013,2 hPa 0,0 l/m 13,4 km/h (3 Bft) 0,67 h 14,4 km/h (3 Bft)
15.05.2010 14:00 17,4 C 13,9 C 7,1 UV-I 3,6 C 48 % 48 % 93 % 1013,7 hPa 0,0 l/m 11,9 km/h (2 Bft) 0,73 h 12,4 km/h (3 Bft)
15.05.2010 15:00 18,5 C 15,1 C 7,9 UV-I 4,6 C 45 % 44 % 98 % 1014,5 hPa 0,0 l/m 11,3 km/h (2 Bft) 0,80 h 12,3 km/h (3 Bft)
15.05.2010 16:00 19,0 C 15,0 C 5,8 UV-I 3,1 C 43 % 45 % 80 % 1014,3 hPa 0,0 l/m 10,3 km/h (2 Bft) 0,27 h 10,7 km/h (2 Bft)
15.05.2010 17:00 19,0 C 14,8 C 2,0 UV-I 1,7 C 43 % 47 % 46 % 1014,2 hPa 0,0 l/m 8,9 km/h (2 Bft) 0,10 h 9,3 km/h (2 Bft)
15.05.2010 18:00 18,6 C 14,5 C 2,1 UV-I 1,2 C 44 % 50 % 35 % 1013,4 hPa 0,0 l/m 7,7 km/h (2 Bft) 0,07 h 8,8 km/h (2 Bft)
15.05.2010 19:00 18,1 C 14,1 C 0,8 UV-I 0,2 C 45 % 54 % 5 % 1012,8 hPa 0,0 l/m 4,1 km/h (1 Bft) 0,00 h 5,2 km/h (1 Bft)
15.05.2010 20:00 17,5 C 13,1 C 0,0 UV-I 0,0 C 46 % 59 % 0 % 1012,6 hPa 0,0 l/m 5,3 km/h (1 Bft) 0,00 h 6,3 km/h (2 Bft)
15.05.2010 21:00 17,1 C 12,2 C 0,0 UV-I 0,0 C 48 % 64 % 0 % 1012,6 hPa 0,0 l/m 1,5 km/h (1 Bft) 0,00 h 2,0 km/h (1 Bft)
15.05.2010 22:00 16,8 C 11,4 C 0,0 UV-I 0,0 C 49 % 68 % 0 % 1012,7 hPa 0,0 l/m 1,1 km/h (1 Bft) 0,00 h 1,8 km/h (1 Bft)
15.05.2010 23:00 16,6 C 10,3 C 0,0 UV-I 0,0 C 49 % 73 % 0 % 1012,9 hPa 0,0 l/m 0,7 km/h (0 Bft) 0,00 h 0,9 km/h (0 Bft)
16.05.2010 00:00 16,4 C 9,2 C 0,0 UV-I 0,0 C 50 % 78 % 0 % 1012,9 hPa 0,0 l/m 0,7 km/h (0 Bft) 0,00 h 2,1 km/h (1 Bft)
16.05.2010 01:00 16,2 C 8,7 C 0,0 UV-I 0,0 C 50 % 82 % 0 % 1013,3 hPa 0,0 l/m 1,2 km/h (1 Bft) 0,00 h 4,1 km/h (1 Bft)
16.05.2010 02:00 16,1 C 8,8 C 0,0 UV-I 0,0 C 51 % 85 % 0 % 1013,1 hPa 0,0 l/m 3,2 km/h (1 Bft) 0,00 h 2,9 km/h (1 Bft)
16.05.2010 03:00 16,0 C 8,8 C 0,0 UV-I 0,0 C 52 % 87 % 0 % 1013,4 hPa 0,0 l/m 2,1 km/h (1 Bft) 0,00 h 3,5 km/h (1 Bft)
16.05.2010 04:00 15,8 C 8,6 C 0,0 UV-I 0,0 C 53 % 87 % 0 % 1013,5 hPa 0,0 l/m 2,3 km/h (1 Bft) 0,00 h 2,1 km/h (1 Bft)
16.05.2010 05:00 15,7 C 8,4 C 0,0 UV-I 0,0 C 53 % 86 % 0 % 1013,3 hPa 0,0 l/m 2,2 km/h (1 Bft) 0,00 h 3,1 km/h (1 Bft)
16.05.2010 06:00 15,6 C 8,4 C 0,0 UV-I 0,0 C 54 % 85 % 0 % 1013,5 hPa 0,0 l/m 1,3 km/h (1 Bft) 0,00 h 2,1 km/h (1 Bft)
16.05.2010 07:00 15,6 C 8,6 C 1,0 UV-I 0,1 C 54 % 84 % 2 % 1014,2 hPa 0,0 l/m 0,6 km/h (0 Bft) 0,00 h 1,1 km/h (0 Bft)
16.05.2010 08:00 15,6 C 9,3 C 2,7 UV-I 1,4 C 54 % 83 % 39 % 1014,4 hPa 0,0 l/m 1,8 km/h (1 Bft) 0,07 h 2,7 km/h (1 Bft)
16.05.2010 09:00 15,8 C 11,6 C 7,0 UV-I 6,0 C 53 % 73 % 100 % 1014,9 hPa 0,0 l/m 3,6 km/h (1 Bft) 0,70 h 5,7 km/h (1 Bft)
16.05.2010 10:00 16,3 C 14,0 C 11,9 UV-I 6,4 C 52 % 59 % 100 % 1015,1 hPa 0,0 l/m 7,5 km/h (2 Bft) 0,43 h 10,7 km/h (2 Bft)
16.05.2010 11:00 16,7 C 15,0 C 7,6 UV-I 4,6 C 51 % 56 % 100 % 1015,4 hPa 0,0 l/m 6,4 km/h (2 Bft) 0,40 h 6,3 km/h (2 Bft)
16.05.2010 12:00 17,1 C 16,3 C 7,8 UV-I 4,7 C 50 % 48 % 100 % 1015,5 hPa 0,0 l/m 7,6 km/h (2 Bft) 0,40 h 7,5 km/h (2 Bft)
16.05.2010 13:00 17,5 C 17,0 C 6,4 UV-I 3,5 C 48 % 45 % 89 % 1015,8 hPa 0,0 l/m 7,7 km/h (2 Bft) 0,30 h 9,8 km/h (2 Bft)
16.05.2010 14:00 18,2 C 17,9 C 6,7 UV-I 3,6 C 46 % 43 % 92 % 1016,6 hPa 0,0 l/m 8,8 km/h (2 Bft) 0,30 h 8,5 km/h (2 Bft)
16.05.2010 15:00 18,7 C 17,5 C 4,7 UV-I 2,4 C 45 % 44 % 67 % 1016,8 hPa 0,0 l/m 8,4 km/h (2 Bft) 0,10 h 7,3 km/h (2 Bft)
16.05.2010 16:00 19,6 C 18,3 C 6,9 UV-I 3,1 C 43 % 42 % 87 % 1018,0 hPa 0,0 l/m 8,7 km/h (2 Bft) 0,23 h 10,3 km/h (2 Bft)
16.05.2010 17:00 20,1 C 18,1 C 5,0 UV-I 2,6 C 42 % 46 % 71 % 1018,2 hPa 0,0 l/m 7,1 km/h (2 Bft) 0,37 h 7,1 km/h (2 Bft)
16.05.2010 18:00 19,5 C 17,1 C 2,4 UV-I 0,7 C 43 % 50 % 21 % 1017,3 hPa 0,0 l/m 5,7 km/h (1 Bft) 0,00 h 5,9 km/h (2 Bft)
16.05.2010 19:00 18,9 C 16,6 C 0,9 UV-I 0,2 C 44 % 50 % 6 % 1017,0 hPa 0,0 l/m 5,1 km/h (1 Bft) 0,00 h 5,5 km/h (1 Bft)
16.05.2010 20:00 18,5 C 15,5 C 0,2 UV-I 0,0 C 45 % 52 % 0 % 1017,4 hPa 0,0 l/m 2,4 km/h (1 Bft) 0,00 h 3,1 km/h (1 Bft)
16.05.2010 21:00 18,0 C 13,6 C 0,0 UV-I 0,0 C 46 % 57 % 0 % 1017,9 hPa 0,0 l/m 2,0 km/h (1 Bft) 0,00 h 2,2 km/h (1 Bft)
16.05.2010 22:00 17,6 C 11,8 C 0,0 UV-I 0,0 C 48 % 62 % 0 % 1018,4 hPa 0,0 l/m 0,1 km/h (0 Bft) 0,00 h 0,0 km/h (0 Bft)
16.05.2010 23:00 17,3 C 9,9 C 0,0 UV-I 0,0 C 49 % 71 % 0 % 1018,7 hPa 0,0 l/m 0,0 km/h (0 Bft) 0,00 h 0,0 km/h (0 Bft)
Min-Datum _ 13.05.10 11.05.10 10.05.10 10.05.10 15.05.10 16.05.10 10.05.10 12.05.10 - 11.05.10 - 10.05.10
_ Min-Zeit 06:24 06:14 00:00 00:00 16:56 16:13 00:00 02:53 - 06:12 - 00:30
Minimum _ 14,3 C 5,2 C 0,0 UV-I 0,0 C 42 % 40 % 0 % 1004,3 hPa - 0,0 km/h (0 Bft) - 0,0 km/h (0 Bft)
Max-Datum _ 16.05.10 16.05.10 10.05.10 16.05.10 14.05.10 12.05.10 10.05.10 16.05.10 12.05.10 15.05.10 10.05.10 15.05.10
_ Max-Zeit 17:14 17:12 11:22 09:22 01:22 06:58 10:00 17:12 00:08 12:56 09:56 12:50
Maximum _ 20,2 C 18,8 C 12,9 UV-I 7,3 C 58 % 95 % 100 % 1018,8 hPa 3,0 l/m 18,9 km/h
SW (3 Bft)
0,03 h 33,8 km/h
SW (5 Bft)
Durchschnitt _ 15,9 C 9,3 C 1,5 UV-I 0,8 C 52 % 77 % 19 % 1011,4 hPa #11,4 l/m 5,1 km/h (1 Bft) #15:10 h 5,6 km/h (1 Bft)
© 2012 W. Hausmann